createdAt,value
2018-12-01T00:01:48.420Z,11.58
2018-12-01T00:04:26.598Z,11.56
2018-12-01T00:08:31.208Z,11.59
2018-12-01T00:10:59.948Z,11.62
2018-12-01T00:13:31.347Z,11.61
2018-12-01T00:15:59.807Z,11.61
2018-12-01T00:18:30.808Z,11.64
2018-12-01T00:21:01.111Z,11.60
2018-12-01T00:23:35.078Z,10.45
2018-12-01T00:26:07.907Z,11.43
2018-12-01T00:28:50.511Z,11.27
2018-12-01T00:31:27.809Z,11.24
2018-12-01T00:34:07.565Z,10.96
2018-12-01T00:36:41.872Z,10.96
2018-12-01T00:39:21.795Z,11.07
2018-12-01T00:41:56.921Z,11.14
2018-12-01T00:44:31.210Z,11.14
2018-12-01T00:47:02.207Z,11.16
2018-12-01T00:49:32.522Z,11.18
2018-12-01T00:52:05.213Z,11.19
2018-12-01T00:54:34.531Z,11.15
2018-12-01T00:57:03.820Z,11.17
2018-12-01T00:59:32.811Z,11.20
2018-12-01T01:02:02.666Z,11.16
2018-12-01T01:04:31.392Z,11.15
2018-12-01T01:07:01.031Z,11.09
2018-12-01T01:09:29.803Z,10.95
2018-12-01T01:12:01.166Z,10.94
2018-12-01T01:14:31.216Z,10.97
2018-12-01T01:17:03.186Z,11.04
2018-12-01T01:19:31.716Z,11.04
2018-12-01T01:22:01.265Z,11.01
2018-12-01T01:24:31.162Z,11.02
2018-12-01T01:27:00.397Z,11.02
2018-12-01T01:29:29.955Z,10.99
2018-12-01T01:32:03.161Z,11.02
2018-12-01T01:34:32.410Z,10.77
2018-12-01T01:37:02.944Z,10.83
2018-12-01T01:39:31.722Z,10.62
2018-12-01T01:42:01.223Z,10.50
2018-12-01T01:44:31.636Z,10.52
2018-12-01T01:47:12.478Z,10.42
2018-12-01T01:49:41.406Z,10.25
2018-12-01T01:52:10.382Z,10.41
2018-12-01T01:54:38.861Z,10.41
2018-12-01T01:57:07.543Z,10.37
2018-12-01T01:59:36.156Z,10.21
2018-12-01T02:02:04.686Z,10.30
2018-12-01T02:04:33.745Z,10.36
2018-12-01T02:07:03.117Z,10.26
2018-12-01T02:09:31.699Z,10.30
2018-12-01T02:12:00.317Z,10.24
2018-12-01T02:14:29.228Z,10.32
2018-12-01T02:16:58.814Z,10.11
2018-12-01T02:19:27.395Z,9.98
2018-12-01T02:21:56.023Z,10.03
2018-12-01T02:24:27.418Z,10.16
2018-12-01T02:26:55.727Z,10.10
2018-12-01T02:29:23.981Z,10.23
2018-12-01T02:31:54.064Z,10.12
2018-12-01T02:34:23.189Z,10.11
2018-12-01T02:36:51.718Z,10.11
2018-12-01T02:39:20.272Z,10.04
2018-12-01T02:41:49.503Z,10.16
2018-12-01T02:44:23.353Z,10.22
2018-12-01T02:47:00.053Z,10.33
2018-12-01T02:49:29.387Z,10.08
2018-12-01T02:51:57.601Z,10.03
2018-12-01T02:54:25.897Z,10.23
2018-12-01T02:56:55.737Z,10.22
2018-12-01T02:59:25.464Z,10.09
2018-12-01T03:01:55.474Z,10.01
2018-12-01T03:04:25.468Z,9.94
2018-12-01T03:06:54.394Z,10.09
2018-12-01T03:09:23.851Z,10.08
2018-12-01T03:11:52.312Z,10.26
2018-12-01T03:14:27.361Z,10.10
2018-12-01T03:17:00.047Z,10.13
2018-12-01T03:19:29.223Z,10.17
2018-12-01T03:21:57.787Z,10.05
2018-12-01T03:24:29.347Z,10.10
2018-12-01T03:27:01.590Z,10.19
2018-12-01T03:29:30.235Z,9.97
2018-12-01T03:31:58.775Z,10.08
2018-12-01T03:34:27.841Z,10.11
2018-12-01T03:36:57.243Z,10.00
2018-12-01T03:39:26.217Z,10.25
2018-12-01T03:41:54.780Z,10.50
2018-12-01T03:44:24.041Z,10.53
2018-12-01T03:46:52.688Z,10.50
2018-12-01T03:49:21.871Z,10.31
2018-12-01T03:51:51.766Z,10.44
2018-12-01T03:54:22.644Z,10.52
2018-12-01T03:56:51.390Z,10.58
2018-12-01T03:59:21.300Z,10.50
2018-12-01T04:01:50.947Z,10.20
2018-12-01T04:05:14.401Z,10.23
2018-12-01T04:07:44.237Z,10.19
2018-12-01T04:10:12.718Z,10.23
2018-12-01T04:12:41.894Z,10.29
2018-12-01T04:15:13.583Z,10.29
2018-12-01T04:17:43.654Z,10.23
2018-12-01T04:20:54.768Z,10.28
2018-12-01T04:23:23.486Z,10.37
2018-12-01T04:25:52.725Z,10.33
2018-12-01T04:28:21.407Z,10.13
2018-12-01T04:30:50.031Z,9.00
2018-12-01T04:33:18.342Z,9.96
2018-12-01T04:35:47.034Z,9.99
2018-12-01T04:38:15.445Z,10.06
2018-12-01T04:40:43.770Z,9.97
2018-12-01T04:43:14.606Z,9.99
2018-12-01T04:45:43.612Z,10.00
2018-12-01T04:48:12.605Z,10.07
2018-12-01T04:50:41.882Z,10.12
2018-12-01T04:53:10.543Z,10.19
2018-12-01T04:55:39.304Z,10.15
2018-12-01T04:58:08.283Z,10.18
2018-12-01T05:00:36.886Z,9.84
2018-12-01T05:03:05.154Z,9.95
2018-12-01T05:05:33.744Z,9.92
2018-12-01T05:08:02.409Z,9.94
2018-12-01T05:10:31.110Z,9.81
2018-12-01T05:13:00.146Z,9.83
2018-12-01T05:15:29.598Z,9.65
2018-12-01T05:17:58.069Z,9.47
2018-12-01T05:20:26.743Z,9.35
2018-12-01T05:22:55.892Z,9.52
2018-12-01T05:25:24.444Z,9.52
2018-12-01T05:27:53.524Z,9.56
2018-12-01T05:30:37.388Z,9.58
2018-12-01T05:33:06.064Z,9.68
2018-12-01T05:35:34.538Z,9.32
2018-12-01T05:38:02.913Z,9.25
2018-12-01T05:40:31.685Z,8.81
2018-12-01T05:43:00.162Z,9.25
2018-12-01T05:45:56.501Z,9.26
2018-12-01T05:48:25.060Z,9.49
2018-12-01T05:50:53.658Z,9.48
2018-12-01T05:53:23.003Z,9.64
2018-12-01T05:55:51.229Z,9.75
2018-12-01T05:58:19.660Z,9.91
2018-12-01T06:03:27.223Z,10.00
2018-12-01T06:08:34.674Z,10.04
2018-12-01T06:11:03.874Z,9.99
2018-12-01T06:13:32.502Z,10.10
2018-12-01T06:16:02.736Z,10.13
2018-12-01T06:18:37.371Z,9.98
2018-12-01T06:21:05.906Z,9.96
2018-12-01T06:23:36.130Z,10.03
2018-12-01T06:26:06.357Z,10.15
2018-12-01T06:28:35.498Z,10.24
2018-12-01T06:31:07.272Z,10.23
2018-12-01T06:33:36.156Z,10.25
2018-12-01T06:36:05.507Z,10.29
2018-12-01T06:38:35.393Z,10.30
2018-12-01T06:41:04.221Z,10.28
2018-12-01T06:43:37.565Z,10.24
2018-12-01T06:46:11.857Z,10.16
2018-12-01T06:48:41.715Z,10.22
2018-12-01T06:53:28.803Z,10.11
2018-12-01T06:55:58.022Z,10.10
2018-12-01T06:58:27.219Z,10.10
2018-12-01T07:00:57.252Z,10.11
2018-12-01T07:03:27.951Z,10.08
2018-12-01T07:05:58.283Z,10.24
2018-12-01T07:08:28.712Z,10.30
2018-12-01T07:11:02.414Z,10.38
2018-12-01T07:13:37.155Z,10.24
2018-12-01T07:16:06.962Z,10.36
2018-12-01T07:18:46.344Z,10.38
2018-12-01T07:21:24.999Z,10.49
2018-12-01T07:23:53.636Z,10.48
2018-12-01T07:26:25.265Z,10.34
2018-12-01T07:28:54.298Z,10.23
2018-12-01T07:31:25.464Z,10.30
2018-12-01T07:33:54.544Z,10.21
2018-12-01T07:36:24.727Z,10.32
2018-12-01T07:38:56.100Z,10.28
2018-12-01T07:41:27.204Z,10.37
2018-12-01T07:43:56.968Z,10.36
2018-12-01T07:46:33.931Z,10.37
2018-12-01T07:49:05.229Z,10.37
2018-12-01T07:51:35.070Z,10.34
2018-12-01T07:54:08.234Z,10.33
2018-12-01T07:59:29.853Z,10.40
2018-12-01T08:02:00.380Z,10.35
2018-12-01T08:04:29.841Z,9.87
2018-12-01T08:07:02.110Z,10.40
2018-12-01T08:09:37.800Z,10.44
2018-12-01T08:12:10.215Z,10.57
2018-12-01T08:14:39.691Z,10.29
2018-12-01T08:17:11.664Z,10.79
2018-12-01T08:19:43.638Z,10.79
2018-12-01T08:22:15.916Z,10.51
2018-12-01T08:24:45.818Z,10.83
2018-12-01T08:27:15.980Z,10.52
2018-12-01T08:29:45.967Z,10.96
2018-12-01T08:32:17.088Z,10.70
2018-12-01T08:34:51.546Z,10.34
2018-12-01T08:37:21.395Z,10.10
2018-12-01T08:39:55.835Z,10.49
2018-12-01T08:42:29.508Z,10.24
2018-12-01T08:45:13.041Z,10.30
2018-12-01T08:47:50.834Z,10.33
2018-12-01T08:50:26.721Z,10.30
2018-12-01T08:53:08.736Z,10.34
2018-12-01T08:55:42.322Z,10.34
2018-12-01T08:58:21.587Z,10.34
2018-12-01T09:00:54.317Z,10.33
2018-12-01T09:03:47.678Z,10.44
2018-12-01T09:06:53.278Z,10.39
2018-12-01T09:09:45.719Z,10.53
2018-12-01T09:12:38.036Z,10.38
2018-12-01T09:15:20.566Z,10.57
2018-12-01T09:17:59.572Z,10.39
2018-12-01T09:20:42.013Z,10.22
2018-12-01T09:25:58.466Z,10.35
2018-12-01T09:28:41.613Z,10.38
2018-12-01T09:31:27.000Z,10.17
2018-12-01T09:34:13.681Z,10.78
2018-12-01T09:36:58.793Z,10.96
2018-12-01T09:39:31.131Z,10.77
2018-12-01T09:43:59.424Z,10.99
2018-12-01T09:46:29.563Z,10.65
2018-12-01T09:49:10.074Z,10.71
2018-12-01T09:51:51.814Z,10.99
2018-12-01T09:54:31.253Z,11.28
2018-12-01T09:57:07.397Z,11.82
2018-12-01T09:59:39.081Z,12.63
2018-12-01T10:02:09.857Z,13.25
2018-12-01T10:04:40.486Z,14.12
2018-12-01T10:07:11.412Z,14.26
2018-12-01T10:09:41.506Z,14.58
2018-12-01T10:12:11.273Z,13.83
2018-12-01T10:14:40.102Z,13.53
2018-12-01T10:17:12.747Z,13.73
2018-12-01T10:19:44.733Z,13.25
2018-12-01T10:22:17.272Z,13.42
2018-12-01T10:24:46.950Z,12.92
2018-12-01T10:27:16.132Z,12.71
2018-12-01T10:29:54.899Z,13.19
2018-12-01T10:32:25.013Z,12.91
2018-12-01T10:34:59.638Z,12.51
2018-12-01T10:37:36.545Z,12.64
2018-12-01T10:40:21.173Z,12.77
2018-12-01T10:42:59.391Z,12.81
2018-12-01T10:45:29.047Z,12.52
2018-12-01T10:48:08.010Z,12.39
2018-12-01T10:52:58.667Z,12.43
2018-12-01T10:55:45.422Z,12.57
2018-12-01T11:01:03.396Z,12.54
2018-12-01T11:03:38.768Z,12.81
2018-12-01T11:06:12.541Z,12.93
2018-12-01T11:08:47.118Z,12.87
2018-12-01T11:11:18.755Z,12.70
2018-12-01T11:13:47.551Z,12.87
2018-12-01T11:16:22.464Z,12.98
2018-12-01T11:18:51.761Z,13.12
2018-12-01T11:21:27.699Z,13.10
2018-12-01T11:23:56.945Z,12.71
2018-12-01T11:26:27.301Z,12.53
2018-12-01T11:28:57.927Z,12.35
2018-12-01T11:31:29.154Z,12.42
2018-12-01T11:33:59.963Z,12.30
2018-12-01T11:36:34.133Z,12.14
2018-12-01T11:39:05.218Z,12.31
2018-12-01T11:41:33.939Z,12.52
2018-12-01T11:44:08.696Z,12.69
2018-12-01T11:46:39.934Z,12.40
2018-12-01T11:49:15.206Z,12.56
2018-12-01T11:51:46.424Z,12.83
2018-12-01T11:54:17.090Z,12.56
2018-12-01T11:56:53.650Z,12.71
2018-12-01T11:59:24.214Z,13.34
2018-12-01T12:01:54.328Z,12.92
2018-12-01T12:04:28.325Z,13.15
2018-12-01T12:07:12.616Z,13.17
2018-12-01T12:09:46.642Z,12.63
2018-12-01T12:12:15.995Z,12.25
2018-12-01T12:14:46.435Z,12.80
2018-12-01T12:17:23.295Z,12.70
2018-12-01T12:19:56.606Z,12.87
2018-12-01T12:22:40.759Z,12.84
2018-12-01T12:25:19.759Z,12.93
2018-12-01T12:27:57.113Z,12.52
2018-12-01T12:30:33.447Z,12.56
2018-12-01T12:33:08.078Z,12.19
2018-12-01T12:35:39.449Z,12.64
2018-12-01T12:42:52.579Z,12.31
2018-12-01T12:45:36.722Z,12.52
2018-12-01T12:48:14.695Z,12.97
2018-12-01T12:50:45.528Z,12.62
2018-12-01T12:53:17.106Z,12.56
2018-12-01T12:55:49.771Z,12.66
2018-12-01T12:58:18.456Z,12.47
2018-12-01T13:00:50.810Z,12.46
2018-12-01T13:03:21.721Z,12.64
2018-12-01T13:06:00.641Z,12.57
2018-12-01T13:08:36.215Z,12.76
2018-12-01T13:11:07.272Z,12.71
2018-12-01T13:13:41.393Z,12.80
2018-12-01T13:16:14.993Z,12.89
2018-12-01T13:18:44.659Z,13.02
2018-12-01T13:24:00.737Z,12.85
2018-12-01T13:26:34.651Z,13.09
2018-12-01T13:29:08.952Z,12.84
2018-12-01T13:31:47.961Z,13.12
2018-12-01T13:34:27.356Z,13.30
2018-12-01T13:36:58.320Z,13.30
2018-12-01T13:39:29.872Z,12.86
2018-12-01T13:42:04.840Z,12.99
2018-12-01T13:44:36.589Z,12.91
2018-12-01T13:47:07.213Z,12.75
2018-12-01T13:49:40.390Z,12.98
2018-12-01T13:52:18.051Z,12.78
2018-12-01T13:54:52.017Z,12.33
2018-12-01T13:57:28.671Z,12.26
2018-12-01T14:02:54.735Z,12.38
2018-12-01T14:05:25.506Z,12.42
2018-12-01T14:07:59.895Z,12.36
2018-12-01T14:13:13.648Z,12.44
2018-12-01T14:15:48.014Z,12.30
2018-12-01T14:18:16.832Z,12.40
2018-12-01T14:20:46.600Z,12.30
2018-12-01T14:23:16.496Z,12.08
2018-12-01T14:25:47.014Z,12.38
2018-12-01T14:28:16.435Z,12.63
2018-12-01T14:30:46.272Z,12.44
2018-12-01T14:33:16.426Z,12.53
2018-12-01T14:35:44.768Z,12.61
2018-12-01T14:38:17.128Z,12.72
2018-12-01T14:40:49.834Z,12.60
2018-12-01T14:43:18.184Z,12.52
2018-12-01T14:45:51.637Z,12.24
2018-12-01T14:48:28.742Z,12.34
2018-12-01T14:51:06.129Z,12.22
2018-12-01T14:53:36.701Z,12.49
2018-12-01T14:56:16.959Z,12.41
2018-12-01T14:58:49.984Z,11.99
2018-12-01T15:04:11.762Z,11.88
2018-12-01T15:06:41.866Z,11.90
2018-12-01T15:09:13.903Z,11.89
2018-12-01T15:11:46.521Z,11.77
2018-12-01T15:14:15.536Z,11.77
2018-12-01T15:16:44.210Z,11.75
2018-12-01T15:19:13.882Z,11.61
2018-12-01T15:23:24.475Z,11.49
2018-12-01T15:28:05.098Z,11.51
2018-12-01T15:30:35.754Z,11.53
2018-12-01T15:33:05.389Z,11.36
2018-12-01T15:35:38.382Z,11.52
2018-12-01T15:38:08.843Z,11.46
2018-12-01T15:40:37.854Z,11.28
2018-12-01T15:43:07.773Z,11.04
2018-12-01T15:45:37.078Z,10.95
2018-12-01T15:48:07.647Z,10.76
2018-12-01T15:50:37.254Z,10.81
2018-12-01T15:53:10.816Z,10.78
2018-12-01T15:55:43.223Z,10.67
2018-12-01T15:58:13.135Z,10.67
2018-12-01T16:00:43.931Z,10.45
2018-12-01T16:03:17.627Z,10.71
2018-12-01T16:05:47.766Z,11.12
2018-12-01T16:08:16.205Z,11.18
2018-12-01T16:10:46.437Z,11.28
2018-12-01T16:13:19.256Z,11.38
2018-12-01T16:15:50.300Z,11.54
2018-12-01T16:18:20.861Z,11.32
2018-12-01T16:20:51.255Z,11.36
2018-12-01T16:23:20.176Z,11.45
2018-12-01T16:31:20.704Z,10.99
2018-12-01T16:33:59.065Z,11.20
2018-12-01T16:39:38.867Z,11.35
2018-12-01T16:49:05.311Z,11.68
2018-12-01T16:51:35.426Z,11.59
2018-12-01T16:54:12.150Z,11.67
2018-12-01T16:57:21.663Z,11.69
2018-12-01T16:59:56.985Z,11.52
2018-12-01T17:02:41.074Z,11.71
2018-12-01T17:05:18.227Z,11.80
2018-12-01T17:16:09.973Z,11.64
2018-12-01T17:18:45.745Z,11.77
2018-12-01T17:21:27.072Z,11.69
2018-12-01T17:24:13.077Z,11.54
2018-12-01T17:26:47.855Z,11.76
2018-12-01T17:29:29.110Z,11.73
2018-12-01T17:32:11.712Z,11.69
2018-12-01T17:34:56.578Z,11.77
2018-12-01T17:37:47.186Z,11.78
2018-12-01T17:40:24.564Z,11.77
2018-12-01T17:43:00.351Z,11.75
2018-12-01T17:45:39.202Z,11.65
2018-12-01T17:48:20.471Z,11.65
2018-12-01T17:51:14.932Z,11.69
2018-12-01T17:54:05.627Z,11.41
2018-12-01T17:56:49.623Z,11.54
2018-12-01T17:59:36.330Z,11.56
2018-12-01T18:02:13.059Z,11.51
2018-12-01T18:04:45.700Z,11.32
2018-12-01T18:07:23.675Z,11.37
2018-12-01T18:10:00.367Z,11.38
2018-12-01T18:12:39.331Z,11.13
2018-12-01T18:15:21.112Z,11.01
2018-12-01T18:17:52.861Z,11.21
2018-12-01T18:23:30.267Z,10.96
2018-12-01T18:26:08.861Z,11.41
2018-12-01T18:28:47.577Z,11.38
2018-12-01T18:31:23.344Z,11.33
2018-12-01T18:34:04.096Z,11.22
2018-12-01T18:36:36.244Z,11.31
2018-12-01T18:39:22.638Z,11.36
2018-12-01T18:41:59.252Z,11.33
2018-12-01T18:44:48.652Z,11.35
2018-12-01T18:47:33.650Z,11.27
2018-12-01T18:50:07.134Z,11.19
2018-12-01T19:00:54.366Z,10.90
2018-12-01T19:03:42.540Z,11.10
2018-12-01T19:06:17.012Z,10.76
2018-12-01T19:08:51.596Z,10.63
2018-12-01T19:11:26.958Z,10.84
2018-12-01T19:14:17.436Z,10.93
2018-12-01T19:16:51.413Z,11.00
2018-12-01T19:19:23.443Z,11.00
2018-12-01T19:24:41.228Z,11.03
2018-12-01T19:27:14.615Z,11.12
2018-12-01T19:29:48.365Z,11.20
2018-12-01T19:32:25.396Z,11.04
2018-12-01T19:34:57.894Z,11.19
2018-12-01T19:37:30.703Z,11.17
2018-12-01T19:42:13.438Z,11.28
2018-12-01T19:44:43.347Z,11.05
2018-12-01T19:47:15.591Z,11.23
2018-12-01T19:49:46.019Z,11.23
2018-12-01T19:52:17.331Z,11.22
2018-12-01T19:54:56.157Z,11.13
2018-12-01T19:57:30.121Z,11.22
2018-12-01T20:00:05.965Z,11.15
2018-12-01T20:02:37.136Z,11.25
2018-12-01T20:05:07.381Z,11.40
2018-12-01T20:07:41.290Z,11.40
2018-12-01T20:10:15.691Z,11.48
2018-12-01T20:12:58.387Z,11.52
2018-12-01T20:19:14.178Z,11.54
2018-12-01T20:21:46.503Z,11.55
2018-12-01T20:24:22.068Z,11.57
2018-12-01T20:26:59.059Z,11.56
2018-12-01T20:29:37.681Z,11.46
2018-12-01T20:32:16.432Z,11.37
2018-12-01T20:34:51.470Z,11.51
2018-12-01T20:37:36.423Z,11.43
2018-12-01T20:40:20.581Z,11.11
2018-12-01T20:42:56.974Z,11.36
2018-12-01T20:45:39.258Z,11.55
2018-12-01T20:48:11.108Z,11.56
2018-12-01T20:50:43.964Z,11.67
2018-12-01T20:53:15.279Z,11.66
2018-12-01T20:55:54.621Z,11.53
2018-12-01T20:58:32.557Z,11.74
2018-12-01T21:01:07.703Z,11.66
2018-12-01T21:03:41.492Z,11.81
2018-12-01T21:06:21.271Z,11.89
2018-12-01T21:08:59.033Z,11.88
2018-12-01T21:14:17.436Z,12.04
2018-12-01T21:16:52.288Z,12.02
2018-12-01T21:19:27.644Z,12.15
2018-12-01T21:22:10.815Z,12.18
2018-12-01T21:24:42.387Z,11.92
2018-12-01T21:27:13.968Z,12.20
2018-12-01T21:29:49.613Z,12.29
2018-12-01T21:32:28.030Z,12.42
2018-12-01T21:35:08.123Z,12.38
2018-12-01T21:37:39.539Z,12.26
2018-12-01T21:40:12.095Z,12.39
2018-12-01T21:43:51.099Z,12.01
2018-12-01T21:46:21.987Z,12.01
2018-12-01T21:49:07.419Z,11.94
2018-12-01T21:51:46.682Z,11.93
2018-12-01T21:54:19.309Z,12.20
2018-12-01T21:57:10.734Z,12.01
2018-12-01T22:02:36.713Z,12.09
2018-12-01T22:05:16.737Z,12.26
2018-12-01T22:08:00.560Z,12.16
2018-12-01T22:10:31.319Z,11.98
2018-12-01T22:13:01.524Z,12.18
2018-12-01T22:15:33.379Z,11.97
2018-12-01T22:18:04.332Z,12.00
2018-12-01T22:20:46.128Z,12.41
2018-12-01T22:23:24.101Z,12.39
2018-12-01T22:25:57.416Z,12.55
2018-12-01T22:28:35.229Z,12.66
2018-12-01T22:31:01.129Z,12.67
2018-12-01T22:33:33.730Z,12.57
2018-12-01T22:36:04.207Z,12.22
2018-12-01T22:38:35.268Z,12.76
2018-12-01T22:41:10.674Z,12.35
2018-12-01T22:43:44.735Z,12.61
2018-12-01T22:46:19.081Z,12.36
2018-12-01T22:52:13.484Z,12.73
2018-12-01T22:55:05.430Z,12.43
2018-12-01T22:57:48.624Z,12.54
2018-12-01T23:00:44.863Z,12.36
2018-12-01T23:03:30.979Z,12.05
2018-12-01T23:09:15.292Z,11.85
2018-12-01T23:11:48.292Z,12.14
2018-12-01T23:16:55.665Z,12.35
2018-12-01T23:19:29.562Z,12.36
2018-12-01T23:21:59.084Z,12.52
2018-12-01T23:24:42.487Z,12.55
2018-12-01T23:27:13.563Z,12.48
2018-12-01T23:30:01.334Z,12.09
2018-12-01T23:32:36.312Z,11.75
2018-12-01T23:35:08.193Z,12.61
2018-12-01T23:37:38.958Z,12.62
2018-12-01T23:40:12.604Z,12.55
2018-12-01T23:42:55.298Z,12.09
2018-12-01T23:45:26.421Z,12.13
2018-12-01T23:47:57.220Z,12.42
2018-12-01T23:50:29.815Z,12.47
2018-12-01T23:53:03.312Z,12.37
2018-12-01T23:55:34.991Z,12.14
2018-12-01T23:58:06.806Z,12.54
